createdAt,value
2022-11-15T00:01:10.216Z,94479.75
2022-11-15T00:03:37.173Z,94468.66
2022-11-15T00:06:05.525Z,94459.47
2022-11-15T00:08:33.999Z,94473.44
2022-11-15T00:11:02.801Z,94470.84
2022-11-15T00:13:31.098Z,94469.59
2022-11-15T00:16:00.048Z,94469.06
2022-11-15T00:18:27.339Z,94459.47
2022-11-15T00:20:54.094Z,94459.19
2022-11-15T00:23:20.865Z,94472.91
2022-11-15T00:25:47.665Z,94461.66
2022-11-15T00:28:14.428Z,94446.56
2022-11-15T00:30:41.168Z,94445.22
2022-11-15T00:33:08.175Z,94465.78
2022-11-15T00:35:35.949Z,94451.66
2022-11-15T00:38:03.818Z,94459.47
2022-11-15T00:40:31.601Z,94455.91
2022-11-15T00:42:58.538Z,94459.75
2022-11-15T00:45:25.954Z,94455.06
2022-11-15T00:47:53.380Z,94449.44
2022-11-15T00:50:20.485Z,94455.59
2022-11-15T00:52:47.260Z,94451.25
2022-11-15T00:55:19.061Z,94439.59
2022-11-15T00:57:47.162Z,94444.09
2022-11-15T01:00:14.412Z,94428.72
2022-11-15T01:02:41.156Z,94440.66
2022-11-15T01:05:08.889Z,94433.38
2022-11-15T01:07:35.699Z,94434.91
2022-11-15T01:10:02.492Z,94442.97
2022-11-15T01:12:29.315Z,94427.63
2022-11-15T01:14:56.072Z,94431.75
2022-11-15T01:17:22.827Z,94436.91
2022-11-15T01:19:49.654Z,94438.03
2022-11-15T01:22:16.968Z,94433.66
2022-11-15T01:24:43.743Z,94432.84
2022-11-15T01:27:10.568Z,94428.16
2022-11-15T01:29:37.541Z,94422.50
2022-11-15T01:32:04.595Z,94416.88
2022-11-15T01:34:31.409Z,94422.63
2022-11-15T01:36:58.284Z,94421.16
2022-11-15T01:39:25.022Z,94411.13
2022-11-15T01:41:51.784Z,94419.22
2022-11-15T01:44:44.577Z,94429.75
2022-11-15T01:47:27.247Z,94425.91
2022-11-15T01:50:00.843Z,94419.03
2022-11-15T01:52:30.235Z,94419.03
2022-11-15T01:55:26.295Z,94401.44
2022-11-15T01:57:58.494Z,94405.59
2022-11-15T02:00:25.302Z,94410.94
2022-11-15T02:02:52.302Z,94405.06
2022-11-15T02:05:19.288Z,94397.91
2022-11-15T02:07:46.513Z,94407.88
2022-11-15T02:10:21.579Z,94415.66
2022-11-15T02:12:49.437Z,94395.41
2022-11-15T02:15:16.741Z,94395.34
2022-11-15T02:17:49.424Z,94395.41
2022-11-15T02:21:07.269Z,94387.88
2022-11-15T02:24:13.275Z,94389.25
2022-11-15T02:27:25.764Z,94387.75
2022-11-15T02:30:16.565Z,94391.63
2022-11-15T02:33:05.200Z,94393.66
2022-11-15T02:35:56.771Z,94380.94
2022-11-15T02:39:17.816Z,94380.69
2022-11-15T02:42:04.580Z,94377.66
2022-11-15T02:44:45.080Z,94370.69
2022-11-15T02:47:15.113Z,94376.97
2022-11-15T02:49:58.388Z,94379.34
2022-11-15T02:52:27.238Z,94374.53
2022-11-15T02:55:01.437Z,94360.28
2022-11-15T02:57:53.929Z,94360.44
2022-11-15T03:00:21.404Z,94353.69
2022-11-15T03:03:30.788Z,94358.09
2022-11-15T03:06:31.003Z,94334.38
2022-11-15T03:09:41.910Z,94349.19
2022-11-15T03:12:29.008Z,94341.09
2022-11-15T03:15:08.097Z,94335.22
2022-11-15T03:17:41.297Z,94335.75
2022-11-15T03:20:10.034Z,94337.41
2022-11-15T03:22:41.925Z,94338.78
2022-11-15T03:25:14.435Z,94325.09
2022-11-15T03:27:47.385Z,94318.94
2022-11-15T03:30:15.048Z,94313.03
2022-11-15T03:32:48.762Z,94323.06
2022-11-15T03:35:23.850Z,94307.69
2022-11-15T03:38:01.021Z,94321.50
2022-11-15T03:41:09.493Z,94323.59
2022-11-15T03:43:55.075Z,94313.31
2022-11-15T03:46:49.482Z,94308.66
2022-11-15T03:49:28.360Z,94307.00
2022-11-15T03:52:00.026Z,94306.84
2022-11-15T03:54:26.897Z,94299.31
2022-11-15T03:56:53.732Z,94284.69
2022-11-15T03:59:20.531Z,94279.56
2022-11-15T04:01:47.275Z,94296.97
2022-11-15T04:04:14.140Z,94291.09
2022-11-15T04:06:41.025Z,94275.47
2022-11-15T04:09:08.039Z,94283.16
2022-11-15T04:11:34.749Z,94289.84
2022-11-15T04:14:01.572Z,94298.31
2022-11-15T04:16:28.341Z,94295.31
2022-11-15T04:19:13.597Z,94279.00
2022-11-15T04:21:58.639Z,94283.44
2022-11-15T04:24:25.376Z,94280.66
2022-11-15T04:26:52.166Z,94272.63
2022-11-15T04:29:37.020Z,94277.81
2022-11-15T04:32:06.855Z,94288.63
2022-11-15T04:34:34.154Z,94284.78
2022-11-15T04:37:13.125Z,94282.59
2022-11-15T04:39:41.665Z,94278.50
2022-11-15T04:42:09.198Z,94281.38
2022-11-15T04:44:36.118Z,94291.34
2022-11-15T04:47:04.490Z,94289.44
2022-11-15T04:49:31.310Z,94284.94
2022-11-15T04:52:01.100Z,94281.22
2022-11-15T04:54:29.908Z,94283.31
2022-11-15T04:56:56.748Z,94273.44
2022-11-15T04:59:23.536Z,94283.84
2022-11-15T05:01:50.292Z,94274.91
2022-11-15T05:04:22.874Z,94285.63
2022-11-15T05:06:52.435Z,94283.28
2022-11-15T05:09:20.878Z,94279.56
2022-11-15T05:11:48.204Z,94276.56
2022-11-15T05:14:15.460Z,94281.47
2022-11-15T05:16:42.921Z,94271.91
2022-11-15T05:19:09.848Z,94273.28
2022-11-15T05:21:37.150Z,94277.91
2022-11-15T05:24:05.021Z,94275.19
2022-11-15T05:26:31.828Z,94274.91
2022-11-15T05:29:00.401Z,94263.13
2022-11-15T05:31:28.041Z,94267.81
2022-11-15T05:33:57.596Z,94257.16
2022-11-15T05:36:43.926Z,94248.00
2022-11-15T05:39:10.753Z,94268.94
2022-11-15T05:41:41.971Z,94257.16
2022-11-15T05:44:12.821Z,94262.31
2022-11-15T05:46:42.424Z,94257.13
2022-11-15T05:49:14.376Z,94247.56
2022-11-15T05:51:42.944Z,94244.81
2022-11-15T05:54:10.099Z,94239.50
2022-11-15T05:56:37.021Z,94241.13
2022-11-15T05:59:05.380Z,94231.41
2022-11-15T06:01:32.186Z,94242.47
2022-11-15T06:03:58.952Z,94243.41
2022-11-15T06:06:25.715Z,94250.09
2022-11-15T06:08:52.418Z,94254.91
2022-11-15T06:11:19.139Z,94259.41
2022-11-15T06:13:45.839Z,94270.88
2022-11-15T06:16:12.644Z,94262.13
2022-11-15T06:18:40.045Z,94248.13
2022-11-15T06:21:06.833Z,94255.69
2022-11-15T06:23:34.987Z,94253.72
2022-11-15T06:26:04.060Z,94262.25
2022-11-15T06:28:33.076Z,94272.41
2022-11-15T06:31:14.271Z,94261.59
2022-11-15T06:33:41.716Z,94261.84
2022-11-15T06:36:17.728Z,94254.91
2022-11-15T06:38:46.085Z,94256.94
2022-11-15T06:41:14.363Z,94255.16
2022-11-15T06:43:42.347Z,94258.16
2022-11-15T06:46:09.751Z,94268.84
2022-11-15T06:48:37.361Z,94253.53
2022-11-15T06:51:06.110Z,94253.25
2022-11-15T06:53:34.317Z,94259.69
2022-11-15T06:56:04.529Z,94249.47
2022-11-15T06:58:31.948Z,94244.66
2022-11-15T07:01:05.589Z,94242.63
2022-11-15T07:03:32.846Z,94243.44
2022-11-15T07:06:05.704Z,94250.59
2022-11-15T07:08:34.086Z,94251.53
2022-11-15T07:11:03.501Z,94249.38
2022-11-15T07:13:35.482Z,94239.66
2022-11-15T07:16:11.373Z,94244.31
2022-11-15T07:18:40.460Z,94246.63
2022-11-15T07:21:12.004Z,94237.34
2022-11-15T07:23:39.565Z,94241.59
2022-11-15T07:26:07.698Z,94242.69
2022-11-15T07:28:35.180Z,94240.22
2022-11-15T07:31:07.873Z,94236.16
2022-11-15T07:33:36.044Z,94235.34
2022-11-15T07:36:04.923Z,94225.06
2022-11-15T07:38:32.344Z,94222.47
2022-11-15T07:41:02.282Z,94221.06
2022-11-15T07:43:30.862Z,94231.75
2022-11-15T07:45:59.631Z,94234.75
2022-11-15T07:48:32.168Z,94232.00
2022-11-15T07:51:13.777Z,94233.09
2022-11-15T07:53:40.975Z,94227.56
2022-11-15T07:56:08.687Z,94231.53
2022-11-15T07:58:35.584Z,94226.44
2022-11-15T08:01:07.406Z,94219.31
2022-11-15T08:03:34.879Z,94216.81
2022-11-15T08:06:02.229Z,94207.47
2022-11-15T08:08:29.084Z,94222.25
2022-11-15T08:10:56.064Z,94204.44
2022-11-15T08:13:23.009Z,94212.88
2022-11-15T08:15:54.802Z,94208.75
2022-11-15T08:18:24.286Z,94212.25
2022-11-15T08:20:51.049Z,94210.88
2022-11-15T08:23:17.817Z,94191.66
2022-11-15T08:25:44.687Z,94185.88
2022-11-15T08:28:12.217Z,94193.78
2022-11-15T08:30:43.151Z,94214.34
2022-11-15T08:33:15.015Z,94191.31
2022-11-15T08:35:45.010Z,94188.78
2022-11-15T08:38:11.785Z,94172.88
2022-11-15T08:40:39.075Z,94184.97
2022-11-15T08:43:06.093Z,94181.47
2022-11-15T08:45:35.252Z,94155.91
2022-11-15T08:48:04.248Z,94173.28
2022-11-15T08:50:31.182Z,94171.19
2022-11-15T08:52:58.015Z,94177.34
2022-11-15T08:55:25.114Z,94160.25
2022-11-15T08:57:52.023Z,94157.00
2022-11-15T09:00:21.037Z,94151.31
2022-11-15T09:02:48.087Z,94152.13
2022-11-15T09:05:16.699Z,94156.13
2022-11-15T09:07:44.053Z,94147.00
2022-11-15T09:10:10.853Z,94143.09
2022-11-15T09:12:37.637Z,94156.84
2022-11-15T09:15:06.620Z,94156.88
2022-11-15T09:17:33.444Z,94155.94
2022-11-15T09:20:00.376Z,94138.28
2022-11-15T09:22:27.255Z,94137.66
2022-11-15T09:24:54.040Z,94120.66
2022-11-15T09:27:20.797Z,94144.22
2022-11-15T09:29:47.550Z,94126.56
2022-11-15T09:32:14.378Z,94141.28
2022-11-15T09:34:41.101Z,94141.31
2022-11-15T09:37:07.876Z,94103.00
2022-11-15T09:39:34.677Z,94102.00
2022-11-15T09:42:16.390Z,94138.44
2022-11-15T09:45:17.994Z,94150.19
2022-11-15T09:48:12.635Z,94141.75
2022-11-15T09:50:54.565Z,94133.63
2022-11-15T09:54:18.625Z,94138.94
2022-11-15T09:56:33.529Z,94105.91
2022-11-15T09:59:10.356Z,94131.41
2022-11-15T10:02:11.565Z,94127.59
2022-11-15T10:04:40.549Z,94133.53
2022-11-15T10:07:19.789Z,94129.56
2022-11-15T10:09:59.905Z,94112.91
2022-11-15T10:12:28.377Z,94086.56
2022-11-15T10:15:06.859Z,94111.50
2022-11-15T10:17:57.839Z,94102.47
2022-11-15T10:20:31.348Z,94084.88
2022-11-15T10:23:02.357Z,94088.44
2022-11-15T10:25:32.962Z,94082.94
2022-11-15T10:28:08.001Z,94080.06
2022-11-15T10:30:41.682Z,94077.78
2022-11-15T10:33:37.341Z,94070.91
2022-11-15T10:36:09.972Z,94077.09
2022-11-15T10:38:52.080Z,94073.34
2022-11-15T10:41:31.736Z,94074.81
2022-11-15T10:44:27.217Z,94074.03
2022-11-15T10:46:56.623Z,94068.78
2022-11-15T10:49:31.130Z,94071.03
2022-11-15T10:52:12.793Z,94072.53
2022-11-15T10:54:52.819Z,94051.78
2022-11-15T10:57:32.635Z,94068.06
2022-11-15T11:00:04.594Z,94042.41
2022-11-15T11:02:43.060Z,94062.59
2022-11-15T11:05:39.637Z,94053.94
2022-11-15T11:08:17.026Z,94045.03
2022-11-15T11:11:02.688Z,94041.41
2022-11-15T11:13:38.675Z,94038.94
2022-11-15T11:16:19.879Z,94032.03
2022-11-15T11:19:10.597Z,94036.13
2022-11-15T11:22:24.581Z,94015.38
2022-11-15T11:25:09.817Z,94022.69
2022-11-15T11:28:31.568Z,94012.78
2022-11-15T11:31:23.692Z,94006.50
2022-11-15T11:34:15.036Z,94016.44
2022-11-15T11:36:55.349Z,94009.34
2022-11-15T11:39:32.904Z,94006.31
2022-11-15T11:42:59.261Z,94008.56
2022-11-15T11:45:35.099Z,94008.38
2022-11-15T11:48:15.902Z,93997.16
2022-11-15T11:50:45.804Z,94019.53
2022-11-15T11:53:23.947Z,94015.25
2022-11-15T11:56:28.092Z,94002.88
2022-11-15T11:59:01.842Z,94013.44
2022-11-15T12:01:44.054Z,94013.22
2022-11-15T12:04:31.123Z,93999.19
2022-11-15T12:07:24.722Z,94009.94
2022-11-15T12:10:07.062Z,94000.75
2022-11-15T12:12:45.853Z,94006.06
2022-11-15T12:15:20.761Z,94011.94
2022-11-15T12:17:49.489Z,94012.56
2022-11-15T12:20:23.434Z,94012.13
2022-11-15T12:22:52.996Z,94005.66
2022-11-15T12:25:29.828Z,94004.66
2022-11-15T12:28:05.029Z,93999.97
2022-11-15T12:31:07.128Z,94008.50
2022-11-15T12:33:44.657Z,94006.47
2022-11-15T12:36:23.371Z,94011.53
2022-11-15T12:39:07.688Z,93999.97
2022-11-15T12:41:51.556Z,93986.97
2022-11-15T12:44:33.131Z,93995.09
2022-11-15T12:47:05.084Z,93992.28
2022-11-15T12:49:31.718Z,93993.91
2022-11-15T12:51:58.326Z,93982.97
2022-11-15T12:54:24.969Z,93983.78
2022-11-15T12:57:04.092Z,93985.81
2022-11-15T12:59:59.785Z,93971.34
2022-11-15T13:02:32.559Z,93980.47
2022-11-15T13:05:17.372Z,93975.00
2022-11-15T13:07:43.985Z,93971.19
2022-11-15T13:10:13.698Z,93961.38
2022-11-15T13:12:46.673Z,93955.72
2022-11-15T13:15:13.324Z,93952.09
2022-11-15T13:17:55.240Z,93950.03
2022-11-15T13:20:22.283Z,93946.16
2022-11-15T13:23:03.382Z,93935.38
2022-11-15T13:26:11.544Z,93920.13
2022-11-15T13:28:48.568Z,93932.31
2022-11-15T13:31:35.728Z,93936.34
2022-11-15T13:34:44.158Z,93929.84
2022-11-15T13:37:03.250Z,93932.06
2022-11-15T13:39:37.581Z,93930.84
2022-11-15T13:42:05.252Z,93920.69
2022-11-15T13:44:34.181Z,93913.16
2022-11-15T13:47:20.308Z,93906.66
2022-11-15T13:49:47.059Z,93907.28
2022-11-15T13:52:17.509Z,93895.91
2022-11-15T13:55:09.428Z,93896.72
2022-11-15T13:57:44.390Z,93884.34
2022-11-15T14:00:44.320Z,93882.72
2022-11-15T14:03:19.797Z,93885.31
2022-11-15T14:06:23.822Z,93878.00
2022-11-15T14:09:08.484Z,93878.00
2022-11-15T14:11:35.640Z,93875.19
2022-11-15T14:14:08.284Z,93860.38
2022-11-15T14:16:47.332Z,93861.81
2022-11-15T14:19:36.240Z,93870.72
2022-11-15T14:22:14.378Z,93864.03
2022-11-15T14:24:44.272Z,93859.94
2022-11-15T14:27:18.321Z,93870.28
2022-11-15T14:29:45.088Z,93861.75
2022-11-15T14:32:27.090Z,93855.25
2022-11-15T14:35:02.397Z,93856.88
2022-11-15T14:37:35.096Z,93856.25
2022-11-15T14:40:07.169Z,93852.38
2022-11-15T14:42:34.010Z,93847.66
2022-11-15T14:45:00.820Z,93856.75
2022-11-15T14:47:27.543Z,93851.84
2022-11-15T14:49:54.286Z,93846.97
2022-11-15T14:52:32.703Z,93854.47
2022-11-15T14:55:02.376Z,93853.84
2022-11-15T14:57:30.573Z,93856.66
2022-11-15T14:59:57.915Z,93835.50
2022-11-15T15:02:27.878Z,93853.38
2022-11-15T15:04:55.085Z,93850.50
2022-11-15T15:07:22.247Z,93856.97
2022-11-15T15:09:49.032Z,93849.59
2022-11-15T15:12:22.482Z,93843.91
2022-11-15T15:14:50.957Z,93845.50
2022-11-15T15:17:18.288Z,93845.50
2022-11-15T15:19:45.137Z,93841.00
2022-11-15T15:22:26.450Z,93840.19
2022-11-15T15:24:53.168Z,93836.94
2022-11-15T15:27:19.897Z,93846.03
2022-11-15T15:29:46.659Z,93836.88
2022-11-15T15:32:14.527Z,93834.63
2022-11-15T15:34:41.329Z,93842.53
2022-11-15T15:37:28.335Z,93827.91
2022-11-15T15:39:57.737Z,93825.06
2022-11-15T15:42:25.156Z,93805.09
2022-11-15T15:44:52.609Z,93824.56
2022-11-15T15:47:23.645Z,93813.66
2022-11-15T15:49:52.108Z,93804.69
2022-11-15T15:52:19.387Z,93788.22
2022-11-15T15:54:46.374Z,93783.97
2022-11-15T15:57:16.155Z,93777.03
2022-11-15T15:59:43.293Z,93780.66
2022-11-15T16:02:13.487Z,93782.09
2022-11-15T16:04:40.907Z,93774.28
2022-11-15T16:07:21.000Z,93773.63
2022-11-15T16:10:03.258Z,93770.19
2022-11-15T16:12:32.499Z,93769.59
2022-11-15T16:14:59.999Z,93773.22
2022-11-15T16:17:34.497Z,93770.38
2022-11-15T16:20:01.920Z,93758.97
2022-11-15T16:22:30.392Z,93758.97
2022-11-15T16:24:57.845Z,93763.25
2022-11-15T16:27:25.065Z,93753.00
2022-11-15T16:29:51.792Z,93753.81
2022-11-15T16:32:18.555Z,93735.72
2022-11-15T16:34:48.971Z,93746.31
2022-11-15T16:37:25.563Z,93740.81
2022-11-15T16:39:55.962Z,93747.25
2022-11-15T16:42:25.199Z,93749.44
2022-11-15T16:44:51.933Z,93746.56
2022-11-15T16:47:20.468Z,93731.94
2022-11-15T16:49:47.733Z,93727.44
2022-11-15T16:52:20.144Z,93735.94
2022-11-15T16:54:48.049Z,93736.91
2022-11-15T16:57:14.801Z,93737.72
2022-11-15T16:59:41.526Z,93743.19
2022-11-15T17:02:13.376Z,93734.69
2022-11-15T17:04:40.275Z,93726.53
2022-11-15T17:07:07.215Z,93735.22
2022-11-15T17:09:34.517Z,93732.16
2022-11-15T17:12:01.329Z,93726.25
2022-11-15T17:14:28.068Z,93728.88
2022-11-15T17:16:55.470Z,93721.13
2022-11-15T17:19:22.333Z,93717.06
2022-11-15T17:21:52.196Z,93699.63
2022-11-15T17:24:21.064Z,93716.81
2022-11-15T17:26:48.031Z,93707.69
2022-11-15T17:29:14.886Z,93710.13
2022-11-15T17:31:41.596Z,93706.50
2022-11-15T17:34:08.432Z,93704.25
2022-11-15T17:36:35.677Z,93705.25
2022-11-15T17:39:04.001Z,93692.44
2022-11-15T17:41:30.973Z,93693.97
2022-11-15T17:44:00.229Z,93703.34
2022-11-15T17:46:29.182Z,93694.59
2022-11-15T17:48:57.272Z,93694.59
2022-11-15T17:51:24.345Z,93695.41
2022-11-15T17:53:51.830Z,93692.34
2022-11-15T17:56:21.907Z,93673.09
2022-11-15T17:58:51.575Z,93682.47
2022-11-15T18:01:21.297Z,93691.97
2022-11-15T18:03:48.820Z,93689.56
2022-11-15T18:06:17.165Z,93685.59
2022-11-15T18:08:46.641Z,93682.97
2022-11-15T18:11:21.944Z,93681.94
2022-11-15T18:13:55.858Z,93682.34
2022-11-15T18:16:26.234Z,93679.97
2022-11-15T18:18:54.857Z,93675.09
2022-11-15T18:21:25.948Z,93675.91
2022-11-15T18:23:58.695Z,93670.59
2022-11-15T18:26:28.539Z,93668.38
2022-11-15T18:29:04.256Z,93672.81
2022-11-15T18:31:31.889Z,93673.28
2022-11-15T18:34:00.792Z,93658.28
2022-11-15T18:36:30.346Z,93669.69
2022-11-15T18:39:02.402Z,93656.50
2022-11-15T18:41:29.851Z,93651.25
2022-11-15T18:44:01.724Z,93648.19
2022-11-15T18:46:31.701Z,93651.44
2022-11-15T18:49:00.764Z,93628.84
2022-11-15T18:51:30.371Z,93628.03
2022-11-15T18:54:02.160Z,93638.41
2022-11-15T18:56:31.260Z,93649.53
2022-11-15T18:59:01.447Z,93641.28
2022-11-15T19:01:34.031Z,93635.59
2022-11-15T19:04:07.424Z,93632.78
2022-11-15T19:06:39.313Z,93611.91
2022-11-15T19:09:06.243Z,93613.34
2022-11-15T19:11:35.981Z,93607.69
2022-11-15T19:14:06.443Z,93612.38
2022-11-15T19:16:37.108Z,93608.72
2022-11-15T19:19:08.591Z,93609.56
2022-11-15T19:21:35.388Z,93604.22
2022-11-15T19:24:02.302Z,93589.41
2022-11-15T19:26:30.005Z,93586.63
2022-11-15T19:29:01.237Z,93593.31
2022-11-15T19:31:30.475Z,93594.56
2022-11-15T19:34:00.489Z,93594.22
2022-11-15T19:36:39.612Z,93590.78
2022-11-15T19:39:10.319Z,93581.31
2022-11-15T19:41:39.684Z,93565.91
2022-11-15T19:44:07.237Z,93584.28
2022-11-15T19:46:34.409Z,93576.00
2022-11-15T19:49:01.618Z,93577.25
2022-11-15T19:51:31.175Z,93565.06
2022-11-15T19:54:06.651Z,93570.75
2022-11-15T19:56:34.766Z,93567.47
2022-11-15T19:59:02.609Z,93548.06
2022-11-15T20:01:32.967Z,93541.56
2022-11-15T20:04:00.423Z,93556.56
2022-11-15T20:06:30.787Z,93554.91
2022-11-15T20:08:58.371Z,93546.44
2022-11-15T20:11:25.955Z,93537.94
2022-11-15T20:14:01.911Z,93536.84
2022-11-15T20:16:29.444Z,93524.25
2022-11-15T20:18:56.257Z,93528.53
2022-11-15T20:21:24.056Z,93538.66
2022-11-15T20:23:51.855Z,93533.44
2022-11-15T20:26:21.862Z,93530.75
2022-11-15T20:28:49.057Z,93521.06
2022-11-15T20:31:17.342Z,93524.31
2022-11-15T20:33:44.482Z,93512.56
2022-11-15T20:36:14.553Z,93512.75
2022-11-15T20:38:41.766Z,93513.56
2022-11-15T20:41:11.441Z,93507.91
2022-11-15T20:43:38.253Z,93499.66
2022-11-15T20:46:05.266Z,93503.69
2022-11-15T20:48:32.548Z,93515.19
2022-11-15T20:51:12.749Z,93507.75
2022-11-15T20:53:41.625Z,93502.97
2022-11-15T20:56:13.159Z,93508.38
2022-11-15T20:58:40.571Z,93485.31
2022-11-15T21:01:10.684Z,93502.00
2022-11-15T21:03:37.943Z,93503.72
2022-11-15T21:06:05.107Z,93492.44
2022-11-15T21:08:50.893Z,93494.47
2022-11-15T21:11:36.475Z,93491.88
2022-11-15T21:14:08.938Z,93489.25
2022-11-15T21:16:36.930Z,93474.34
2022-11-15T21:19:03.837Z,93474.34
2022-11-15T21:21:30.611Z,93459.72
2022-11-15T21:23:57.387Z,93464.22
2022-11-15T21:26:24.228Z,93447.16
2022-11-15T21:28:50.956Z,93469.81
2022-11-15T21:31:17.768Z,93455.47
2022-11-15T21:33:44.468Z,93445.47
2022-11-15T21:36:11.216Z,93446.38
2022-11-15T21:38:38.453Z,93453.31
2022-11-15T21:41:05.838Z,93454.09
2022-11-15T21:43:33.949Z,93446.88
2022-11-15T21:46:03.999Z,93445.91
2022-11-15T21:48:34.126Z,93455.38
2022-11-15T21:51:05.297Z,93439.94
2022-11-15T21:53:32.754Z,93453.53
2022-11-15T21:56:01.077Z,93443.63
2022-11-15T21:58:28.900Z,93446.69
2022-11-15T22:01:14.797Z,93439.41
2022-11-15T22:03:44.019Z,93446.53
2022-11-15T22:06:17.235Z,93435.22
2022-11-15T22:08:46.214Z,93437.59
2022-11-15T22:11:14.533Z,93438.03
2022-11-15T22:13:41.364Z,93433.16
2022-11-15T22:16:09.269Z,93422.03
2022-11-15T22:18:36.831Z,93435.78
2022-11-15T22:21:12.505Z,93424.22
2022-11-15T22:23:40.216Z,93438.22
2022-11-15T22:26:08.713Z,93435.78
2022-11-15T22:28:36.086Z,93442.66
2022-11-15T22:31:03.284Z,93430.72
2022-11-15T22:33:32.906Z,93436.91
2022-11-15T22:36:00.528Z,93433.53
2022-11-15T22:38:28.462Z,93430.09
2022-11-15T22:40:56.016Z,93431.34
2022-11-15T22:43:24.909Z,93432.34
2022-11-15T22:45:51.565Z,93436.78
2022-11-15T22:48:24.293Z,93424.66
2022-11-15T22:50:51.525Z,93429.72
2022-11-15T22:53:19.371Z,93428.34
2022-11-15T22:56:00.560Z,93429.16
2022-11-15T22:58:30.904Z,93427.56
2022-11-15T23:01:02.577Z,93428.28
2022-11-15T23:03:30.581Z,93440.25
2022-11-15T23:06:06.309Z,93440.84
2022-11-15T23:08:33.346Z,93442.88
2022-11-15T23:11:23.059Z,93434.84
2022-11-15T23:13:51.995Z,93445.25
2022-11-15T23:16:34.807Z,93436.16
2022-11-15T23:19:09.341Z,93451.50
2022-11-15T23:22:01.168Z,93442.72
2022-11-15T23:24:28.549Z,93440.44
2022-11-15T23:27:00.632Z,93457.81
2022-11-15T23:29:29.031Z,93444.53
2022-11-15T23:32:15.551Z,93453.38
2022-11-15T23:34:45.033Z,93437.75
2022-11-15T23:37:14.491Z,93448.50
2022-11-15T23:39:41.264Z,93436.50
2022-11-15T23:42:09.616Z,93434.97
2022-11-15T23:44:37.010Z,93435.41
2022-11-15T23:47:03.875Z,93439.19
2022-11-15T23:49:30.659Z,93446.25
2022-11-15T23:51:57.506Z,93432.53
2022-11-15T23:54:24.298Z,93436.50
2022-11-15T23:56:51.052Z,93432.91
2022-11-15T23:59:18.355Z,93420.97
